Time;durP1;ratioP1;P1;durP2;ratioP2;P2;SDS_P1;SDS_P2;PMS_P1;PMS_P2;Temp;Humidity;BMP_temperature;BMP_pressure;BME280_temperature;BME280_humidity;BME280_pressure;Samples;Min_cycle;Max_cycle;Signal;HPM_P1;HPM_P2
2022/01/04 00:00:17;;;;;;;3.47;1.60;;;11.10;99.90;;;;;;5028820;28;20715;-22
2022/01/04 00:02:46;;;;;;;2.17;1.20;;;11.00;99.90;;;;;;5030414;28;20217;-22
2022/01/04 00:05:14;;;;;;;2.27;1.20;;;11.00;99.90;;;;;;5030159;28;20581;-22
2022/01/04 00:07:41;;;;;;;3.57;1.50;;;11.00;99.90;;;;;;5030598;28;20193;-22
2022/01/04 00:10:09;;;;;;;3.27;1.20;;;11.00;99.90;;;;;;5030374;28;20220;-22
2022/01/04 00:15:23;;;;;;;2.13;1.03;;;11.00;99.90;;;;;;5029316;28;20213;-22
2022/01/04 00:17:52;;;;;;;1.77;1.10;;;11.00;99.90;;;;;;5030007;28;20236;-22
2022/01/04 00:20:21;;;;;;;3.17;0.97;;;11.00;99.90;;;;;;5030502;28;20189;-23
2022/01/04 00:22:49;;;;;;;2.10;1.03;;;11.00;99.90;;;;;;5029845;28;20236;-22
2022/01/04 00:25:18;;;;;;;2.33;1.10;;;11.00;99.90;;;;;;5028718;28;20208;-22
2022/01/04 00:27:46;;;;;;;2.23;0.90;;;11.00;99.90;;;;;;5028547;28;20216;-22
2022/01/04 00:30:16;;;;;;;2.77;1.20;;;11.00;99.90;;;;;;5029472;28;20197;-22
2022/01/04 00:32:45;;;;;;;3.00;0.93;;;10.90;99.90;;;;;;5028923;28;20204;-22
2022/01/04 00:35:15;;;;;;;2.13;1.10;;;11.00;99.90;;;;;;5028572;28;20244;-23
2022/01/04 00:37:42;;;;;;;2.23;1.10;;;10.90;99.90;;;;;;5030121;28;20207;-22
2022/01/04 00:40:09;;;;;;;2.00;0.80;;;10.90;99.90;;;;;;5029168;28;20418;-22
2022/01/04 00:42:37;;;;;;;1.70;1.00;;;10.90;99.90;;;;;;5028383;28;20200;-22
2022/01/04 00:45:05;;;;;;;2.03;1.10;;;10.90;99.90;;;;;;5029597;28;20476;-22
2022/01/04 00:50:22;;;;;;;3.03;0.90;;;10.90;99.90;;;;;;5028656;28;20225;-23
2022/01/04 00:52:50;;;;;;;1.30;1.00;;;10.90;99.90;;;;;;5029568;28;20390;-22
2022/01/04 00:55:18;;;;;;;2.47;1.17;;;10.90;99.90;;;;;;5015399;28;20205;-22
2022/01/04 00:57:47;;;;;;;1.43;0.93;;;10.90;99.90;;;;;;5028012;28;20201;-22
2022/01/04 01:00:18;;;;;;;2.47;1.00;;;10.90;99.90;;;;;;5027165;28;20205;-22
2022/01/04 01:02:47;;;;;;;2.40;1.43;;;10.90;99.90;;;;;;5020392;28;20386;-22
2022/01/04 01:05:16;;;;;;;3.10;1.67;;;10.90;99.90;;;;;;5028422;28;20209;-22
2022/01/04 01:07:46;;;;;;;1.97;1.23;;;10.90;99.90;;;;;;5029266;28;20201;-22
2022/01/04 01:12:45;;;;;;;2.07;1.40;;;10.90;99.90;;;;;;5029273;28;20205;-22
2022/01/04 01:15:16;;;;;;;2.30;1.30;;;10.90;99.90;;;;;;5028271;28;20236;-22
2022/01/04 01:17:43;;;;;;;1.77;1.10;;;10.90;99.90;;;;;;5027064;28;20193;-22
2022/01/04 01:20:13;;;;;;;2.47;1.30;;;10.90;99.90;;;;;;5029137;28;20698;-22
2022/01/04 01:22:42;;;;;;;1.67;1.20;;;10.90;99.90;;;;;;5029669;28;20197;-22
2022/01/04 01:25:12;;;;;;;2.03;1.30;;;10.90;99.90;;;;;;5026478;28;20224;-22
2022/01/04 01:27:43;;;;;;;3.93;1.43;;;10.90;99.90;;;;;;5024551;28;20615;-22
2022/01/04 01:30:11;;;;;;;2.60;1.17;;;10.90;99.90;;;;;;5026031;28;20196;-22
2022/01/04 01:32:40;;;;;;;4.00;1.20;;;10.90;99.90;;;;;;5029294;28;20225;-22
2022/01/04 01:35:10;;;;;;;2.10;1.70;;;10.90;99.90;;;;;;5026220;28;20672;-22
2022/01/04 01:37:37;;;;;;;4.27;1.83;;;10.90;99.90;;;;;;5028616;28;20216;-22
2022/01/04 01:40:07;;;;;;;2.93;1.40;;;10.80;99.90;;;;;;5028373;28;20197;-30
2022/01/04 01:42:34;;;;;;;2.37;1.20;;;10.90;99.90;;;;;;5027895;28;20209;-23
2022/01/04 01:45:03;;;;;;;2.87;1.60;;;10.90;99.90;;;;;;5028400;28;20225;-22
2022/01/04 01:47:32;;;;;;;4.27;2.03;;;10.90;99.90;;;;;;5027343;28;20255;-22
2022/01/04 01:49:59;;;;;;;3.97;1.90;;;10.90;99.90;;;;;;5028688;28;20778;-22
2022/01/04 01:52:27;;;;;;;2.40;1.70;;;10.90;99.90;;;;;;5028627;28;20584;-22
2022/01/04 01:54:54;;;;;;;3.83;1.87;;;10.90;99.90;;;;;;5025602;28;20816;-22
2022/01/04 01:57:24;;;;;;;5.60;1.83;;;10.90;99.90;;;;;;5027020;28;20220;-22
2022/01/04 01:59:51;;;;;;;3.40;1.77;;;10.90;99.90;;;;;;5024716;28;20209;-22
2022/01/04 02:02:21;;;;;;;2.67;1.77;;;10.80;99.90;;;;;;5023481;28;20224;-22
2022/01/04 02:04:49;;;;;;;2.43;1.80;;;10.90;99.90;;;;;;5026400;28;20240;-22
2022/01/04 02:07:18;;;;;;;2.27;1.70;;;10.90;99.90;;;;;;5028679;28;20634;-22
2022/01/04 02:10:00;;;;;;;2.53;1.77;;;10.80;99.90;;;;;;5027360;28;20551;-22
2022/01/04 02:12:28;;;;;;;2.70;1.70;;;10.80;99.90;;;;;;5037187;28;20224;-22
2022/01/04 02:15:00;;;;;;;1.87;1.63;;;10.80;99.90;;;;;;5023458;28;20649;-22
2022/01/04 02:17:30;;;;;;;2.40;1.80;;;10.80;99.90;;;;;;5027496;28;20212;-22
2022/01/04 02:19:59;;;;;;;2.93;2.00;;;10.90;99.90;;;;;;5026056;28;20476;-22
2022/01/04 02:22:27;;;;;;;3.03;2.00;;;10.80;99.90;;;;;;5027522;28;20205;-22
2022/01/04 02:24:57;;;;;;;3.50;2.00;;;10.80;99.90;;;;;;5026585;28;20205;-22
2022/01/04 02:27:27;;;;;;;2.10;1.60;;;10.80;99.90;;;;;;5027790;28;20648;-22
2022/01/04 02:29:55;;;;;;;3.13;1.87;;;10.80;99.90;;;;;;5025809;28;20398;-23
2022/01/04 02:32:24;;;;;;;3.03;1.80;;;10.80;99.90;;;;;;5028020;28;20209;-22
2022/01/04 02:34:52;;;;;;;2.83;1.73;;;10.80;99.90;;;;;;5027113;28;20201;-22
2022/01/04 02:37:21;;;;;;;1.80;1.50;;;10.80;99.90;;;;;;5028178;28;20215;-22
2022/01/04 02:39:51;;;;;;;3.83;2.13;;;10.80;99.90;;;;;;5027448;28;20215;-22
2022/01/04 02:42:20;;;;;;;2.43;1.53;;;10.80;99.90;;;;;;5026738;28;20210;-22
2022/01/04 02:44:49;;;;;;;2.57;1.13;;;10.80;99.90;;;;;;5026390;28;20220;-22
2022/01/04 02:47:17;;;;;;;2.27;1.40;;;10.80;99.90;;;;;;5026182;28;20224;-22
2022/01/04 02:49:47;;;;;;;2.53;1.60;;;10.80;99.90;;;;;;5027353;28;20331;-22
2022/01/04 02:52:17;;;;;;;2.13;1.20;;;10.80;99.90;;;;;;5026610;28;20304;-22
2022/01/04 02:55:07;;;;;;;2.47;1.30;;;10.80;99.90;;;;;;4971821;28;20216;-22
2022/01/04 02:57:34;;;;;;;3.57;1.50;;;10.80;99.90;;;;;;5027939;28;20228;-22
2022/01/04 03:00:06;;;;;;;1.87;1.20;;;10.80;99.90;;;;;;5026737;28;20201;-22
2022/01/04 03:02:35;;;;;;;1.70;1.30;;;10.80;99.90;;;;;;5027108;28;20743;-22
2022/01/04 03:05:04;;;;;;;1.97;1.10;;;10.80;99.90;;;;;;5026845;28;20586;-22
2022/01/04 03:07:31;;;;;;;1.43;1.20;;;10.80;99.90;;;;;;5027644;28;20209;-22
2022/01/04 03:09:59;;;;;;;3.10;1.30;;;10.80;99.90;;;;;;5026611;28;20581;-22
2022/01/04 03:12:26;;;;;;;3.70;1.53;;;10.80;99.90;;;;;;5026619;28;20683;-22
2022/01/04 03:14:58;;;;;;;1.90;1.30;;;10.80;99.90;;;;;;5026423;28;20209;-22
2022/01/04 03:17:27;;;;;;;1.40;0.90;;;10.80;99.90;;;;;;5027522;28;20200;-22
2022/01/04 03:19:57;;;;;;;2.03;1.30;;;10.80;99.90;;;;;;5025902;28;20312;-22
2022/01/04 03:22:24;;;;;;;2.80;1.00;;;10.80;99.90;;;;;;5026793;28;20204;-22
2022/01/04 03:24:54;;;;;;;2.40;1.20;;;10.80;99.90;;;;;;5024181;28;20294;-22
2022/01/04 03:27:21;;;;;;;2.80;1.50;;;10.80;99.90;;;;;;5026006;28;20683;-22
2022/01/04 03:29:51;;;;;;;3.43;1.20;;;10.80;99.90;;;;;;5026858;28;20286;-22
2022/01/04 03:32:18;;;;;;;2.73;1.23;;;10.70;99.90;;;;;;5028967;28;20248;-22
2022/01/04 03:34:48;;;;;;;2.63;1.20;;;10.70;99.90;;;;;;5029238;28;20655;-22
2022/01/04 03:37:20;;;;;;;1.33;1.03;;;10.70;99.90;;;;;;5031142;28;20215;-23
2022/01/04 03:39:47;;;;;;;1.67;1.00;;;10.70;99.90;;;;;;5029383;28;20595;-22
2022/01/04 03:42:19;;;;;;;1.20;1.10;;;10.70;99.90;;;;;;5029939;28;20729;-22
2022/01/04 03:44:49;;;;;;;1.93;1.30;;;10.70;99.90;;;;;;5031010;28;20209;-22
2022/01/04 03:47:19;;;;;;;2.27;1.00;;;10.70;99.90;;;;;;5031212;28;20219;-22
2022/01/04 03:49:46;;;;;;;1.83;1.10;;;10.70;99.90;;;;;;5031460;28;20240;-23
2022/01/04 03:52:13;;;;;;;2.33;1.20;;;10.70;99.90;;;;;;5031083;28;20217;-22
2022/01/04 03:54:45;;;;;;;1.40;1.00;;;10.70;99.90;;;;;;5028764;28;20197;-22
2022/01/04 03:57:15;;;;;;;1.57;0.90;;;10.70;99.90;;;;;;5031509;28;20216;-22
2022/01/04 03:59:44;;;;;;;1.40;0.90;;;10.70;99.90;;;;;;5030751;28;20644;-22
2022/01/04 04:02:12;;;;;;;2.07;1.00;;;10.70;99.90;;;;;;5031483;28;20203;-22
2022/01/04 04:04:41;;;;;;;3.07;1.10;;;10.70;99.90;;;;;;5030574;28;20791;-22
2022/01/04 04:07:09;;;;;;;1.07;0.97;;;10.60;99.90;;;;;;5032347;28;20586;-22
2022/01/04 04:09:37;;;;;;;2.00;1.10;;;10.60;99.90;;;;;;5029652;28;20217;-22
2022/01/04 04:12:04;;;;;;;2.43;1.00;;;10.60;99.90;;;;;;5031047;28;20240;-22
2022/01/04 04:14:32;;;;;;;1.63;1.07;;;10.60;99.90;;;;;;5029469;28;20204;-22
2022/01/04 04:17:10;;;;;;;2.00;1.20;;;10.60;99.90;;;;;;5030729;28;20508;-22
2022/01/04 04:19:37;;;;;;;2.77;1.67;;;10.60;99.90;;;;;;5029767;28;20681;-22
2022/01/04 04:22:05;;;;;;;2.80;1.20;;;10.60;99.90;;;;;;5031251;28;20196;-22
2022/01/04 04:24:34;;;;;;;1.50;1.40;;;10.60;99.90;;;;;;5029730;28;20189;-22
2022/01/04 04:27:04;;;;;;;2.77;1.23;;;10.60;99.90;;;;;;5030170;28;20212;-22
2022/01/04 04:29:32;;;;;;;2.10;1.50;;;10.60;99.90;;;;;;5028738;28;20201;-22
2022/01/04 04:32:00;;;;;;;1.07;1.00;;;10.60;99.90;;;;;;5013146;28;20217;-24
2022/01/04 04:34:30;;;;;;;3.03;1.57;;;10.60;99.90;;;;;;5029607;28;20216;-24
2022/01/04 04:36:57;;;;;;;2.20;1.07;;;10.60;99.90;;;;;;5029165;28;20197;-24
2022/01/04 04:39:24;;;;;;;2.83;1.23;;;10.60;99.90;;;;;;5028917;28;20197;-24
2022/01/04 04:41:54;;;;;;;1.67;1.00;;;10.60;99.90;;;;;;5030784;28;20201;-24
2022/01/04 04:44:21;;;;;;;1.83;1.30;;;10.50;99.90;;;;;;5029315;28;20567;-24
2022/01/04 04:46:49;;;;;;;2.33;1.10;;;10.50;99.90;;;;;;5030946;28;20200;-24
2022/01/04 04:49:17;;;;;;;1.90;1.10;;;10.50;99.90;;;;;;5030736;28;20245;-24
2022/01/04 04:51:44;;;;;;;2.43;1.40;;;10.50;99.90;;;;;;5030617;28;20275;-24
2022/01/04 04:54:14;;;;;;;2.23;1.03;;;10.50;99.90;;;;;;5029349;28;20288;-24
2022/01/04 04:56:41;;;;;;;2.57;1.53;;;10.50;99.90;;;;;;5030058;28;20203;-24
2022/01/04 04:59:11;;;;;;;1.97;1.00;;;10.50;99.90;;;;;;5029582;28;20216;-24
2022/01/04 05:01:38;;;;;;;1.30;0.90;;;10.50;99.90;;;;;;5021884;28;20216;-24
2022/01/04 05:04:08;;;;;;;1.67;0.87;;;10.50;99.90;;;;;;5029691;28;20687;-24
2022/01/04 05:06:36;;;;;;;1.87;0.97;;;10.50;99.90;;;;;;5030057;28;20300;-24
2022/01/04 05:09:06;;;;;;;2.60;0.90;;;10.50;99.90;;;;;;5028926;28;20201;-24
2022/01/04 05:11:33;;;;;;;1.30;0.60;;;10.50;99.90;;;;;;5030025;28;20227;-24
2022/01/04 05:14:00;;;;;;;0.80;0.70;;;10.50;99.90;;;;;;5028046;28;20295;-24
2022/01/04 05:16:35;;;;;;;1.57;0.70;;;10.50;99.90;;;;;;5029186;28;20624;-24
2022/01/04 05:19:04;;;;;;;1.13;0.60;;;10.50;99.90;;;;;;5029993;28;20212;-23
2022/01/04 05:21:32;;;;;;;1.43;0.80;;;10.50;99.90;;;;;;5013376;28;20203;-24
2022/01/04 05:23:59;;;;;;;0.70;0.70;;;10.50;99.90;;;;;;5029150;28;20208;-24
2022/01/04 05:26:27;;;;;;;0.60;0.60;;;10.50;99.90;;;;;;5028080;28;20224;-24
2022/01/04 05:29:02;;;;;;;1.20;0.77;;;10.50;99.90;;;;;;5029066;28;20586;-24
2022/01/04 05:31:29;;;;;;;1.93;0.90;;;10.50;99.90;;;;;;5029628;28;20194;-24
2022/01/04 05:33:59;;;;;;;2.40;1.17;;;10.40;99.90;;;;;;5028608;28;20293;-24
2022/01/04 05:36:31;;;;;;;2.30;1.20;;;10.50;99.90;;;;;;5026948;28;20272;-24
2022/01/04 05:39:00;;;;;;;1.60;1.10;;;10.50;99.90;;;;;;5028435;28;20691;-24
2022/01/04 05:41:27;;;;;;;1.40;0.80;;;10.50;99.90;;;;;;5024881;28;20667;-24
2022/01/04 05:43:57;;;;;;;2.20;1.20;;;10.50;99.90;;;;;;5027723;28;20193;-24
2022/01/04 05:46:26;;;;;;;2.93;1.47;;;10.50;99.90;;;;;;5028789;28;20193;-24
2022/01/04 05:48:56;;;;;;;2.30;1.60;;;10.50;99.90;;;;;;5025161;28;20247;-24
2022/01/04 05:51:23;;;;;;;1.27;0.93;;;10.50;99.90;;;;;;5029498;28;20636;-24
2022/01/04 05:53:53;;;;;;;1.97;1.30;;;10.50;99.90;;;;;;5025444;28;20244;-24
2022/01/04 05:56:22;;;;;;;1.40;1.30;;;10.50;99.90;;;;;;5043162;28;20204;-24
2022/01/04 05:58:49;;;;;;;1.33;1.13;;;10.50;99.90;;;;;;5026918;28;20343;-22
2022/01/04 06:01:19;;;;;;;2.07;1.53;;;10.50;99.90;;;;;;5028405;28;20204;-22
2022/01/04 06:03:51;;;;;;;3.67;2.77;;;10.50;99.90;;;;;;5026862;28;20227;-22
2022/01/04 06:06:18;;;;;;;4.10;2.00;;;10.50;99.90;;;;;;5027786;28;20566;-22
2022/01/04 06:08:46;;;;;;;1.90;1.60;;;10.50;99.90;;;;;;5042388;28;20296;-22
2022/01/04 06:17:29;;;;;;;1.83;1.40;;;10.50;99.90;;;;;;4955426;28;20768;-22
2022/01/04 06:20:01;;;;;;;2.97;1.60;;;10.50;99.90;;;;;;5019525;28;20228;-22
2022/01/04 06:22:28;;;;;;;1.93;1.60;;;10.50;99.90;;;;;;5028029;28;20261;-22
2022/01/04 06:24:56;;;;;;;2.30;1.80;;;10.50;99.90;;;;;;5027576;28;20226;-22
2022/01/04 06:27:28;;;;;;;2.93;1.87;;;10.50;99.90;;;;;;5024112;28;20223;-22
2022/01/04 06:29:58;;;;;;;2.77;2.07;;;10.50;99.90;;;;;;5027614;28;20292;-22
2022/01/04 06:32:25;;;;;;;3.73;2.10;;;10.50;99.90;;;;;;5027466;28;20228;-22
2022/01/04 06:34:53;;;;;;;2.53;2.10;;;10.50;99.90;;;;;;5027170;28;20209;-22
2022/01/04 06:37:20;;;;;;;3.83;2.47;;;10.40;99.90;;;;;;5027185;28;20197;-22
2022/01/04 06:39:48;;;;;;;3.10;2.63;;;10.40;99.90;;;;;;5023738;28;20212;-22
2022/01/04 06:42:15;;;;;;;3.17;2.60;;;10.40;99.90;;;;;;5027269;28;20252;-22
2022/01/04 06:44:43;;;;;;;3.03;2.73;;;10.40;99.90;;;;;;5027303;28;20209;-22
2022/01/04 06:47:11;;;;;;;3.00;2.40;;;10.40;99.90;;;;;;5026921;28;20208;-22
2022/01/04 06:49:38;;;;;;;3.57;2.93;;;10.40;99.90;;;;;;5055780;28;20662;-22
2022/01/04 06:52:12;;;;;;;4.23;2.87;;;10.40;99.90;;;;;;5026587;28;20662;-22
2022/01/04 06:54:39;;;;;;;3.10;2.63;;;10.40;99.90;;;;;;5026902;28;20627;-22
2022/01/04 06:57:09;;;;;;;5.27;3.50;;;10.40;99.90;;;;;;5027916;28;20209;-22
2022/01/04 06:59:38;;;;;;;3.73;3.30;;;10.40;99.90;;;;;;5027191;28;20197;-22
2022/01/04 07:02:08;;;;;;;6.40;3.60;;;10.40;99.90;;;;;;5027449;28;20282;-22
2022/01/04 07:04:35;;;;;;;6.13;4.10;;;10.40;99.90;;;;;;5027179;28;20205;-22
2022/01/04 07:07:03;;;;;;;6.87;3.87;;;10.40;99.90;;;;;;5026684;28;20204;-22
2022/01/04 07:09:30;;;;;;;5.50;4.10;;;10.40;99.90;;;;;;5026711;28;20212;-22
2022/01/04 07:11:58;;;;;;;5.10;4.27;;;10.40;99.90;;;;;;5027164;28;20201;-22
2022/01/04 07:14:25;;;;;;;6.73;4.40;;;10.40;99.90;;;;;;5026185;28;20193;-22
2022/01/04 07:16:52;;;;;;;6.03;4.37;;;10.50;99.90;;;;;;5028021;28;20201;-22
2022/01/04 07:19:23;;;;;;;6.13;4.57;;;10.40;99.90;;;;;;5025314;28;20259;-22
2022/01/04 07:21:50;;;;;;;5.40;4.47;;;10.40;99.90;;;;;;5027504;28;20637;-22
2022/01/04 07:24:19;;;;;;;6.63;4.60;;;10.50;99.90;;;;;;5026840;28;20204;-22
2022/01/04 07:26:47;;;;;;;6.07;5.00;;;10.50;99.90;;;;;;5022158;28;20224;-22
2022/01/04 07:29:18;;;;;;;5.87;4.87;;;10.50;99.90;;;;;;5024452;28;20204;-22
2022/01/04 07:31:45;;;;;;;6.60;5.17;;;10.50;99.90;;;;;;5027760;28;20208;-22
2022/01/04 07:34:15;;;;;;;6.23;4.97;;;10.50;99.90;;;;;;5037567;28;20224;-22
2022/01/04 07:36:42;;;;;;;6.50;5.10;;;10.50;99.90;;;;;;5032949;28;20271;-22
2022/01/04 07:39:10;;;;;;;7.50;5.33;;;10.40;99.90;;;;;;5026132;28;20196;-22
2022/01/04 07:41:37;;;;;;;7.23;5.10;;;10.40;99.90;;;;;;5026483;28;20189;-22
2022/01/04 07:44:06;;;;;;;8.57;5.70;;;10.50;99.90;;;;;;5027730;28;21962;-22
2022/01/04 07:46:38;;;;;;;8.57;5.37;;;10.50;99.90;;;;;;5047641;28;20750;-23
2022/01/04 07:49:05;;;;;;;9.43;5.67;;;10.40;99.90;;;;;;5031084;28;20196;-22
2022/01/04 07:51:32;;;;;;;9.63;6.13;;;10.40;99.90;;;;;;5026693;28;20569;-22
2022/01/04 07:53:59;;;;;;;9.13;6.17;;;10.40;99.90;;;;;;5025805;28;20537;-23
2022/01/04 07:56:27;;;;;;;9.80;6.30;;;10.40;99.90;;;;;;5027254;28;20214;-22
2022/01/04 07:59:00;;;;;;;8.60;6.23;;;10.40;99.90;;;;;;5026288;28;20193;-22
2022/01/04 08:01:32;;;;;;;11.87;6.80;;;10.40;99.90;;;;;;5027489;28;20591;-22
2022/01/04 08:04:00;;;;;;;8.70;6.70;;;10.40;99.90;;;;;;5026627;28;20523;-22
2022/01/04 08:06:27;;;;;;;11.67;7.30;;;10.40;99.90;;;;;;5031273;28;20477;-23
2022/01/04 08:08:57;;;;;;;10.77;6.63;;;10.40;99.90;;;;;;5025599;28;20220;-22
2022/01/04 08:11:26;;;;;;;10.77;6.20;;;10.40;99.90;;;;;;5026249;28;20782;-22
2022/01/04 08:13:56;;;;;;;9.50;6.97;;;10.40;99.90;;;;;;5025416;28;20766;-22
2022/01/04 08:16:25;;;;;;;10.63;6.90;;;10.40;99.90;;;;;;5026835;28;20255;-22
2022/01/04 08:18:55;;;;;;;10.00;6.50;;;10.40;99.90;;;;;;5027531;28;20695;-23
2022/01/04 08:21:32;;;;;;;11.47;6.60;;;10.40;99.90;;;;;;5030760;28;20208;-22
2022/01/04 08:23:59;;;;;;;10.60;7.40;;;10.40;99.90;;;;;;5030214;28;20208;-23
2022/01/04 08:26:28;;;;;;;10.00;7.23;;;10.40;99.90;;;;;;5030566;28;20217;-24
2022/01/04 08:28:56;;;;;;;12.27;8.13;;;10.40;99.90;;;;;;5029218;28;20205;-24
2022/01/04 08:31:24;;;;;;;11.07;7.93;;;10.40;99.90;;;;;;5026660;28;20223;-24
2022/01/04 08:33:54;;;;;;;11.57;8.03;;;10.40;99.90;;;;;;5020572;28;20235;-24
2022/01/04 08:36:25;;;;;;;11.77;7.87;;;10.40;99.90;;;;;;5028971;28;20208;-24
2022/01/04 08:38:59;;;;;;;12.37;9.13;;;10.40;99.90;;;;;;5037758;28;20697;-24
2022/01/04 08:41:27;;;;;;;13.10;8.37;;;10.40;99.90;;;;;;5022790;28;20216;-24
2022/01/04 08:43:56;;;;;;;10.77;7.83;;;10.40;99.90;;;;;;5028036;28;20528;-25
2022/01/04 08:46:26;;;;;;;12.17;7.77;;;10.50;99.90;;;;;;5026487;28;20228;-24
2022/01/04 08:48:53;;;;;;;9.43;7.17;;;10.40;99.90;;;;;;5027019;28;20208;-24
2022/01/04 08:51:21;;;;;;;10.33;7.30;;;10.40;99.90;;;;;;5027890;28;20958;-24
2022/01/04 08:53:50;;;;;;;11.03;7.43;;;10.40;99.90;;;;;;5027280;28;20217;-24
2022/01/04 08:56:18;;;;;;;10.77;7.77;;;10.40;99.90;;;;;;5025718;28;20213;-24
2022/01/04 08:58:45;;;;;;;10.13;7.27;;;10.40;99.90;;;;;;5027893;28;20201;-25
2022/01/04 09:01:13;;;;;;;11.00;6.77;;;10.40;99.90;;;;;;5029458;28;20561;-24
2022/01/04 09:03:42;;;;;;;10.33;7.03;;;10.40;99.90;;;;;;5029963;28;20230;-24
2022/01/04 09:06:11;;;;;;;9.93;6.90;;;10.40;99.90;;;;;;5029279;28;20679;-24
2022/01/04 09:08:38;;;;;;;8.30;6.33;;;10.50;99.90;;;;;;5029664;28;20212;-24
2022/01/04 09:11:05;;;;;;;9.60;6.20;;;10.50;99.90;;;;;;5025440;28;20217;-24
2022/01/04 09:13:38;;;;;;;7.17;6.17;;;10.50;99.90;;;;;;5015041;28;20316;-25
2022/01/04 09:18:48;;;;;;;7.83;6.30;;;10.50;99.90;;;;;;5028871;28;20762;-24
2022/01/04 09:21:28;;;;;;;7.33;5.50;;;10.50;99.90;;;;;;5029737;28;20204;-24
2022/01/04 09:24:00;;;;;;;8.40;6.00;;;10.50;99.90;;;;;;5028670;28;20204;-24
2022/01/04 09:26:30;;;;;;;6.93;5.27;;;10.50;99.90;;;;;;5027919;28;20674;-24
2022/01/04 09:28:57;;;;;;;6.63;5.07;;;10.60;99.90;;;;;;5028066;28;20213;-24
2022/01/04 09:31:27;;;;;;;7.10;5.23;;;10.50;99.90;;;;;;5027791;28;20197;-24
2022/01/04 09:33:56;;;;;;;6.47;5.20;;;10.60;99.90;;;;;;5027112;28;20283;-24
2022/01/04 09:36:35;;;;;;;6.87;5.60;;;10.60;99.90;;;;;;5028442;28;20205;-24
2022/01/04 09:39:05;;;;;;;5.53;4.60;;;10.60;99.90;;;;;;5026969;28;20220;-24
2022/01/04 09:41:35;;;;;;;6.20;4.97;;;10.60;99.90;;;;;;5026686;28;20197;-24
2022/01/04 09:44:04;;;;;;;6.53;5.37;;;10.60;99.90;;;;;;5042586;28;20201;-24
2022/01/04 09:46:32;;;;;;;6.97;5.20;;;10.70;99.90;;;;;;5027437;28;20758;-24
2022/01/04 09:49:02;;;;;;;7.33;6.17;;;10.70;99.90;;;;;;5028273;28;20525;-24
2022/01/04 09:51:30;;;;;;;9.27;5.60;;;10.70;99.90;;;;;;5028367;28;20467;-24
2022/01/04 09:54:04;;;;;;;6.10;5.27;;;10.70;99.90;;;;;;5026534;28;20296;-24
2022/01/04 09:56:31;;;;;;;7.60;5.80;;;10.70;99.90;;;;;;5027084;28;20197;-24
2022/01/04 09:58:58;;;;;;;9.10;5.97;;;10.70;99.90;;;;;;5027431;28;20550;-24
2022/01/04 10:01:32;;;;;;;8.03;6.00;;;10.70;99.90;;;;;;5028469;28;20197;-24
2022/01/04 10:04:18;;;;;;;7.87;6.83;;;10.70;99.90;;;;;;5028460;28;20212;-24
2022/01/04 10:07:03;;;;;;;10.53;6.87;;;10.80;99.90;;;;;;5027005;28;20244;-24
2022/01/04 10:09:37;;;;;;;9.17;6.30;;;10.80;99.90;;;;;;5023495;28;20274;-24
2022/01/04 10:12:10;;;;;;;9.63;7.17;;;10.80;99.90;;;;;;5041649;28;20423;-24
2022/01/04 10:14:46;;;;;;;9.47;6.33;;;10.80;99.90;;;;;;5026123;28;20315;-24
2022/01/04 10:17:28;;;;;;;11.40;7.20;;;10.80;99.90;;;;;;5027284;28;20204;-24
2022/01/04 10:19:58;;;;;;;8.17;6.13;;;10.90;99.90;;;;;;5028292;28;20212;-24
2022/01/04 10:22:36;;;;;;;9.53;6.33;;;10.90;99.90;;;;;;5058669;28;20208;-24
2022/01/04 10:25:03;;;;;;;9.37;6.30;;;10.90;99.90;;;;;;5026040;28;20196;-24
2022/01/04 10:27:51;;;;;;;8.77;6.50;;;10.90;99.90;;;;;;5022076;28;20205;-24
2022/01/04 10:30:26;;;;;;;8.37;6.47;;;10.90;99.90;;;;;;5026575;28;20216;-24
2022/01/04 10:33:10;;;;;;;7.27;6.07;;;10.90;99.90;;;;;;5039339;28;20610;-24
2022/01/04 10:35:42;;;;;;;9.17;6.20;;;10.90;99.90;;;;;;5019481;28;20646;-24
2022/01/04 10:38:19;;;;;;;7.03;6.33;;;10.90;99.90;;;;;;5018307;28;20409;-27
2022/01/04 10:41:03;;;;;;;8.20;5.93;;;10.90;99.90;;;;;;5022203;28;20201;-24
2022/01/04 10:43:46;;;;;;;6.53;5.73;;;10.90;99.90;;;;;;5055847;28;20227;-24
2022/01/04 10:46:19;;;;;;;6.37;5.63;;;10.90;99.90;;;;;;5039274;28;20243;-24
2022/01/04 10:48:49;;;;;;;8.00;5.67;;;10.90;99.90;;;;;;5032122;28;20213;-24
2022/01/04 10:51:22;;;;;;;9.70;5.77;;;10.90;99.90;;;;;;5027014;28;20284;-24
2022/01/04 10:53:51;;;;;;;8.30;5.17;;;10.90;99.90;;;;;;5025973;28;20225;-24
2022/01/04 10:56:32;;;;;;;4.87;4.20;;;10.90;99.90;;;;;;5041092;28;20212;-24
2022/01/04 10:59:02;;;;;;;7.13;4.93;;;10.90;99.90;;;;;;5035641;28;20220;-25
2022/01/04 11:01:38;;;;;;;8.03;4.67;;;10.90;99.90;;;;;;5020531;28;20201;-24
2022/01/04 11:04:13;;;;;;;5.37;4.00;;;11.00;99.90;;;;;;5024398;28;20353;-24
2022/01/04 11:06:44;;;;;;;3.97;3.50;;;11.00;99.90;;;;;;5025230;28;20200;-25
2022/01/04 11:09:14;;;;;;;4.10;3.13;;;11.00;99.90;;;;;;5026085;28;20201;-24
2022/01/04 11:11:42;;;;;;;4.60;3.60;;;11.00;99.90;;;;;;5026700;28;20212;-24
2022/01/04 11:14:11;;;;;;;4.00;2.90;;;11.10;99.90;;;;;;5025949;28;20233;-24
2022/01/04 11:16:40;;;;;;;5.37;3.27;;;11.10;99.90;;;;;;5058590;28;20200;-23
2022/01/04 11:19:08;;;;;;;5.10;3.20;;;11.10;99.90;;;;;;5025614;28;20621;-23
2022/01/04 11:21:38;;;;;;;4.63;3.40;;;11.10;99.90;;;;;;5027813;28;20216;-23
2022/01/04 11:24:12;;;;;;;5.23;3.33;;;11.20;99.90;;;;;;5023299;28;20227;-23
2022/01/04 11:26:41;;;;;;;5.83;3.40;;;11.20;99.90;;;;;;5029293;28;20242;-22
2022/01/04 11:29:09;;;;;;;3.83;3.00;;;11.20;99.90;;;;;;5020691;28;20296;-22
2022/01/04 11:31:58;;;;;;;3.97;3.17;;;11.20;99.90;;;;;;5027084;28;20221;-22
2022/01/04 11:35:03;;;;;;;4.50;2.90;;;11.20;99.90;;;;;;5026474;28;20305;-23
2022/01/04 11:37:32;;;;;;;5.37;3.43;;;11.20;99.90;;;;;;5020162;28;20206;-23
2022/01/04 11:40:24;;;;;;;5.87;3.53;;;11.20;99.90;;;;;;5022464;28;20243;-22
2022/01/04 11:42:53;;;;;;;4.67;3.40;;;11.20;99.90;;;;;;5018934;28;20263;-22
2022/01/04 11:45:39;;;;;;;3.97;3.53;;;11.20;99.90;;;;;;5019755;28;20703;-22
2022/01/04 11:48:25;;;;;;;3.93;3.20;;;11.20;99.90;;;;;;5025559;28;20223;-22
2022/01/04 11:50:58;;;;;;;6.13;3.67;;;11.20;99.90;;;;;;5026513;28;20598;-23
2022/01/04 11:53:25;;;;;;;6.57;3.43;;;11.20;99.90;;;;;;5027659;28;20250;-23
2022/01/04 11:55:56;;;;;;;8.77;4.37;;;11.20;99.90;;;;;;5030270;28;21004;-23
2022/01/04 11:58:25;;;;;;;7.00;4.20;;;11.20;99.90;;;;;;5030324;28;20211;-22
2022/01/04 12:01:03;;;;;;;6.70;3.90;;;11.20;99.90;;;;;;5030407;28;20553;-22
2022/01/04 12:03:50;;;;;;;4.93;4.13;;;11.20;99.90;;;;;;5030200;28;20251;-22
2022/01/04 12:06:20;;;;;;;4.77;4.10;;;11.30;99.90;;;;;;5022359;28;20275;-23
2022/01/04 12:08:54;;;;;;;5.47;3.70;;;11.20;99.90;;;;;;5028010;28;20208;-24
2022/01/04 12:11:24;;;;;;;6.07;3.97;;;11.20;99.90;;;;;;5026613;28;20218;-24
2022/01/04 12:14:00;;;;;;;6.57;4.40;;;11.20;99.90;;;;;;5024313;28;20306;-24
2022/01/04 12:16:39;;;;;;;5.73;4.23;;;11.30;99.90;;;;;;5037599;28;20290;-24
2022/01/04 12:19:11;;;;;;;7.73;4.67;;;11.30;99.90;;;;;;5029902;28;20624;-24
2022/01/04 12:21:44;;;;;;;5.17;4.30;;;11.20;99.90;;;;;;5025829;28;20197;-24
2022/01/04 12:24:14;;;;;;;5.53;4.10;;;11.30;99.90;;;;;;5028941;28;20556;-24
2022/01/04 12:26:42;;;;;;;7.57;5.20;;;11.30;99.90;;;;;;5021937;28;20204;-24
2022/01/04 12:29:09;;;;;;;5.80;5.07;;;11.30;99.90;;;;;;5024519;28;20623;-23
2022/01/04 12:31:49;;;;;;;6.60;4.80;;;11.30;99.90;;;;;;5023448;28;20259;-22
2022/01/04 12:34:31;;;;;;;5.83;5.17;;;11.30;99.90;;;;;;5032065;28;20315;-22
2022/01/04 12:37:01;;;;;;;7.43;5.67;;;11.30;99.90;;;;;;5016328;28;20205;-22
2022/01/04 12:39:39;;;;;;;6.10;5.50;;;11.30;99.90;;;;;;5027567;28;20778;-22
2022/01/04 12:42:11;;;;;;;9.17;6.40;;;11.30;99.90;;;;;;5030183;28;20213;-22
2022/01/04 12:44:38;;;;;;;7.83;5.90;;;11.30;99.90;;;;;;5029597;28;20213;-23
2022/01/04 12:47:08;;;;;;;6.90;6.07;;;11.30;99.90;;;;;;5029431;28;20275;-23
2022/01/04 12:49:37;;;;;;;8.10;6.10;;;11.30;99.90;;;;;;5025246;28;20379;-22
2022/01/04 12:52:08;;;;;;;8.40;6.10;;;11.30;99.90;;;;;;5027441;28;20224;-22
2022/01/04 12:54:39;;;;;;;6.43;5.53;;;11.30;99.90;;;;;;5018148;28;20221;-23
2022/01/04 12:57:17;;;;;;;6.60;5.10;;;11.30;99.90;;;;;;5023722;28;20205;-23
2022/01/04 12:59:49;;;;;;;7.07;5.73;;;11.30;99.90;;;;;;5023216;28;20197;-22
2022/01/04 13:02:22;;;;;;;6.57;5.53;;;11.30;99.90;;;;;;5025514;28;20778;-22
2022/01/04 13:04:56;;;;;;;6.83;5.50;;;11.30;99.90;;;;;;5024984;28;20747;-22
2022/01/04 13:07:31;;;;;;;7.07;5.97;;;11.30;99.90;;;;;;5024384;28;20296;-23
2022/01/04 13:10:05;;;;;;;7.90;6.17;;;11.30;99.90;;;;;;5019489;28;20216;-22
2022/01/04 13:12:42;;;;;;;7.07;5.73;;;11.40;99.90;;;;;;5016001;28;20205;-24
2022/01/04 13:15:19;;;;;;;7.93;5.57;;;11.40;99.90;;;;;;5027238;28;20240;-24
2022/01/04 13:17:53;;;;;;;8.37;5.77;;;11.40;99.90;;;;;;5021973;28;20210;-24